Time;durP1;ratioP1;P1;durP2;ratioP2;P2;SDS_P1;SDS_P2;PMS_P1;PMS_P2;Temp;Humidity;BMP_temperature;BMP_pressure;BME280_temperature;BME280_humidity;BME280_pressure;Samples;Min_cycle;Max_cycle;Signal;HPM_P1;HPM_P2
2022/11/18 00:00:53;;;;;;;;;;;19.10;66.80;;;;;;4501382;31;20043;-69
2022/11/18 00:03:19;;;;;;;;;;;19.00;66.80;;;;;;4499283;31;20521;-68
2022/11/18 00:05:52;;;;;;;;;;;19.00;66.90;;;;;;4499678;31;20477;-68
2022/11/18 00:08:18;;;;;;;;;;;19.00;66.90;;;;;;4499803;31;20033;-68
2022/11/18 00:10:44;;;;;;;;;;;19.00;66.90;;;;;;4496199;31;20050;-68
2022/11/18 00:16:03;;;;;;;;;;;19.00;67.00;;;;;;4499936;31;20076;-69
2022/11/18 00:18:29;;;;;;;;;;;18.90;67.00;;;;;;4501998;31;20039;-68
2022/11/18 00:20:55;;;;;;;;;;;18.90;67.00;;;;;;4499916;31;19969;-69
2022/11/18 00:23:21;;;;;;;;;;;18.90;67.10;;;;;;4512339;31;20021;-68
2022/11/18 00:25:50;;;;;;;;;;;18.90;67.20;;;;;;4509103;31;20646;-68
2022/11/18 00:28:16;;;;;;;;;;;18.90;67.20;;;;;;4498641;31;20443;-68
2022/11/18 00:30:42;;;;;;;;;;;18.90;67.20;;;;;;4511905;31;20194;-68
2022/11/18 00:33:08;;;;;;;;;;;18.90;67.20;;;;;;4507279;31;20033;-68
2022/11/18 00:35:40;;;;;;;;;;;18.80;67.20;;;;;;4497927;31;20521;-68
2022/11/18 00:38:06;;;;;;;;;;;18.80;67.20;;;;;;4497663;31;20031;-69
2022/11/18 00:40:32;;;;;;;;;;;18.80;67.20;;;;;;4497829;31;20025;-69
2022/11/18 00:42:58;;;;;;;;;;;18.80;67.20;;;;;;4500562;31;20151;-69
2022/11/18 00:45:24;;;;;;;;;;;18.80;67.30;;;;;;4497920;31;20646;-68
2022/11/18 00:47:49;;;;;;;;;;;18.80;67.20;;;;;;4499201;31;20493;-68
2022/11/18 00:50:15;;;;;;;;;;;18.70;67.20;;;;;;4509353;31;20629;-68
2022/11/18 00:52:42;;;;;;;;;;;18.80;67.30;;;;;;4526102;31;20052;-68
2022/11/18 00:55:08;;;;;;;;;;;18.70;67.30;;;;;;4510340;31;19993;-68
2022/11/18 00:57:34;;;;;;;;;;;18.70;67.30;;;;;;4508213;31;20029;-68
2022/11/18 01:00:00;;;;;;;;;;;18.70;67.20;;;;;;4497991;31;20076;-67
2022/11/18 01:02:26;;;;;;;;;;;18.70;67.30;;;;;;4498035;31;20044;-68
2022/11/18 01:04:52;;;;;;;;;;;18.70;67.30;;;;;;4510305;31;20033;-67
2022/11/18 01:07:18;;;;;;;;;;;18.70;67.30;;;;;;4507992;31;20017;-68
2022/11/18 01:09:43;;;;;;;;;;;18.60;67.30;;;;;;4526460;31;20032;-68
2022/11/18 01:14:55;;;;;;;;;;;18.60;67.30;;;;;;4512521;31;20033;-68
2022/11/18 01:17:20;;;;;;;;;;;18.60;67.30;;;;;;4500433;31;20032;-68
2022/11/18 01:19:46;;;;;;;;;;;18.60;67.30;;;;;;4509191;31;20047;-68
2022/11/18 01:22:12;;;;;;;;;;;18.60;67.30;;;;;;4506440;31;20191;-69
2022/11/18 01:24:39;;;;;;;;;;;18.60;67.40;;;;;;4506943;31;20413;-69
2022/11/18 01:27:05;;;;;;;;;;;18.60;67.50;;;;;;4513221;31;20482;-69
2022/11/18 01:29:31;;;;;;;;;;;18.60;67.40;;;;;;4514035;31;19980;-68
2022/11/18 01:31:56;;;;;;;;;;;18.60;67.50;;;;;;4507612;31;20052;-69
2022/11/18 01:34:23;;;;;;;;;;;18.60;67.40;;;;;;4514159;31;20192;-68
2022/11/18 01:36:50;;;;;;;;;;;18.50;67.40;;;;;;4511547;31;20146;-68
2022/11/18 01:39:16;;;;;;;;;;;18.50;67.30;;;;;;4507085;31;20040;-69
2022/11/18 01:41:42;;;;;;;;;;;18.60;67.40;;;;;;4501805;31;20092;-68
2022/11/18 01:44:26;;;;;;;;;;;18.50;67.40;;;;;;4506444;31;20503;-69
2022/11/18 01:46:52;;;;;;;;;;;18.50;67.30;;;;;;4512409;31;20927;-68
2022/11/18 01:49:19;;;;;;;;;;;18.50;67.40;;;;;;4511969;31;20033;-67
2022/11/18 01:51:50;;;;;;;;;;;18.50;67.40;;;;;;4508336;31;20025;-68
2022/11/18 01:54:24;;;;;;;;;;;18.50;67.40;;;;;;4504699;31;20166;-68
2022/11/18 01:56:52;;;;;;;;;;;18.50;67.50;;;;;;4510646;31;20485;-68
2022/11/18 01:59:20;;;;;;;;;;;18.50;67.50;;;;;;4506334;31;19997;-67
2022/11/18 02:01:47;;;;;;;;;;;18.50;67.40;;;;;;4520331;31;20036;-68
2022/11/18 02:04:13;;;;;;;;;;;18.50;67.40;;;;;;4509731;31;20033;-67
2022/11/18 02:06:39;;;;;;;;;;;18.40;67.40;;;;;;4510546;31;20032;-68
2022/11/18 02:09:05;;;;;;;;;;;18.40;67.40;;;;;;4526120;31;20113;-68
2022/11/18 02:11:49;;;;;;;;;;;18.40;67.40;;;;;;4512197;31;20028;-68
2022/11/18 02:14:21;;;;;;;;;;;18.40;67.40;;;;;;4512774;31;20039;-68
2022/11/18 02:17:05;;;;;;;;;;;18.40;67.40;;;;;;4514002;31;20036;-68
2022/11/18 02:19:37;;;;;;;;;;;18.40;67.40;;;;;;4511900;31;20021;-68
2022/11/18 02:22:09;;;;;;;;;;;18.40;67.40;;;;;;4512670;31;20051;-68
2022/11/18 02:25:01;;;;;;;;;;;18.40;67.40;;;;;;4512395;31;20044;-67
2022/11/18 02:27:45;;;;;;;;;;;18.40;67.50;;;;;;4503678;31;20032;-68
2022/11/18 02:30:12;;;;;;;;;;;18.40;67.50;;;;;;4510572;31;20028;-68
2022/11/18 02:32:40;;;;;;;;;;;18.40;67.50;;;;;;4504838;31;20037;-68
2022/11/18 02:35:12;;;;;;;;;;;18.30;67.40;;;;;;4503178;31;20032;-67
2022/11/18 02:37:44;;;;;;;;;;;18.30;67.40;;;;;;4508029;31;20151;-67
2022/11/18 02:40:15;;;;;;;;;;;18.30;67.40;;;;;;4524374;31;20035;-68
2022/11/18 02:42:42;;;;;;;;;;;18.30;67.40;;;;;;4513400;31;20077;-67
2022/11/18 02:45:11;;;;;;;;;;;18.30;67.40;;;;;;4511456;31;20033;-68
2022/11/18 02:47:39;;;;;;;;;;;18.30;67.40;;;;;;4514390;31;20029;-67
2022/11/18 02:50:07;;;;;;;;;;;18.30;67.50;;;;;;4513884;31;20146;-68
2022/11/18 02:52:34;;;;;;;;;;;18.30;67.50;;;;;;4507355;31;20033;-68
2022/11/18 02:55:01;;;;;;;;;;;18.20;67.40;;;;;;4501365;31;20020;-68
2022/11/18 02:57:29;;;;;;;;;;;18.20;67.40;;;;;;4500894;31;20104;-68
2022/11/18 02:59:55;;;;;;;;;;;18.20;67.50;;;;;;4500721;31;20179;-68
2022/11/18 03:02:21;;;;;;;;;;;18.20;67.50;;;;;;4498681;31;20166;-68
2022/11/18 03:04:48;;;;;;;;;;;18.20;67.40;;;;;;4504459;31;20035;-68
2022/11/18 03:07:34;;;;;;;;;;;18.20;67.40;;;;;;4500053;31;20044;-68
2022/11/18 03:10:01;;;;;;;;;;;18.20;67.40;;;;;;4511787;31;20017;-67
2022/11/18 03:12:37;;;;;;;;;;;18.20;67.50;;;;;;4501960;31;20033;-67
2022/11/18 03:15:03;;;;;;;;;;;18.20;67.40;;;;;;4499700;31;20033;-68
2022/11/18 03:17:33;;;;;;;;;;;18.20;67.40;;;;;;4501092;31;20032;-67
2022/11/18 03:20:02;;;;;;;;;;;18.20;67.50;;;;;;4499401;31;20474;-68
2022/11/18 03:22:51;;;;;;;;;;;18.10;67.30;;;;;;4500139;31;20045;-68
2022/11/18 03:25:29;;;;;;;;;;;18.10;67.40;;;;;;4512141;31;20029;-67
2022/11/18 03:28:07;;;;;;;;;;;18.10;67.40;;;;;;4498455;31;20040;-69
2022/11/18 03:30:33;;;;;;;;;;;18.10;67.30;;;;;;4501278;31;20061;-68
2022/11/18 03:33:02;;;;;;;;;;;18.10;67.30;;;;;;4498194;31;20078;-67
2022/11/18 03:35:29;;;;;;;;;;;18.10;67.40;;;;;;4511518;31;20025;-68
2022/11/18 03:37:59;;;;;;;;;;;18.00;67.30;;;;;;4508159;31;20036;-67
2022/11/18 03:40:26;;;;;;;;;;;18.00;67.30;;;;;;4509779;31;20103;-68
2022/11/18 03:42:55;;;;;;;;;;;18.00;67.30;;;;;;4512042;31;20146;-68
2022/11/18 03:45:24;;;;;;;;;;;18.00;67.40;;;;;;4498315;31;20057;-68
2022/11/18 03:47:53;;;;;;;;;;;18.00;67.40;;;;;;4511911;31;20065;-67
2022/11/18 03:50:21;;;;;;;;;;;18.00;67.40;;;;;;4502162;31;20095;-67
2022/11/18 03:52:48;;;;;;;;;;;18.10;67.40;;;;;;4500094;31;20450;-68
2022/11/18 03:55:16;;;;;;;;;;;18.10;67.40;;;;;;4511770;31;20044;-67
2022/11/18 03:57:45;;;;;;;;;;;18.00;67.40;;;;;;4498163;31;20033;-68
2022/11/18 04:00:12;;;;;;;;;;;18.00;67.30;;;;;;4499391;31;20107;-67
2022/11/18 04:02:40;;;;;;;;;;;18.00;67.40;;;;;;4494674;31;20175;-68
2022/11/18 04:05:08;;;;;;;;;;;18.00;67.40;;;;;;4510929;31;20386;-67
2022/11/18 04:07:49;;;;;;;;;;;18.00;67.40;;;;;;4501338;31;20029;-67
2022/11/18 04:10:38;;;;;;;;;;;18.00;67.40;;;;;;4498653;31;20103;-68
2022/11/18 04:13:06;;;;;;;;;;;18.00;67.40;;;;;;4505908;31;20583;-67
2022/11/18 04:15:32;;;;;;;;;;;18.00;67.40;;;;;;4497692;31;20133;-67
2022/11/18 04:17:58;;;;;;;;;;;17.90;67.30;;;;;;4501667;31;20036;-67
2022/11/18 04:20:24;;;;;;;;;;;17.90;67.30;;;;;;4499105;31;20044;-67
2022/11/18 04:22:50;;;;;;;;;;;17.90;67.30;;;;;;4511042;31;20033;-68
2022/11/18 04:25:16;;;;;;;;;;;17.90;67.30;;;;;;4527540;31;20046;-67
2022/11/18 04:27:41;;;;;;;;;;;17.90;67.30;;;;;;4525570;31;20558;-68
2022/11/18 04:30:07;;;;;;;;;;;17.90;67.30;;;;;;4511311;31;20514;-67
2022/11/18 04:32:33;;;;;;;;;;;17.90;67.30;;;;;;4497166;31;20037;-68
2022/11/18 04:34:59;;;;;;;;;;;17.90;67.30;;;;;;4509231;31;20072;-68
2022/11/18 04:37:25;;;;;;;;;;;17.90;67.40;;;;;;4495821;31;20036;-67
2022/11/18 04:39:50;;;;;;;;;;;17.90;67.30;;;;;;4499089;31;20398;-67
2022/11/18 04:42:16;;;;;;;;;;;17.90;67.30;;;;;;4498990;31;20062;-67
2022/11/18 04:44:42;;;;;;;;;;;17.80;67.30;;;;;;4497275;31;20123;-67
2022/11/18 04:47:08;;;;;;;;;;;17.80;67.30;;;;;;4510907;31;20025;-67
2022/11/18 04:49:34;;;;;;;;;;;17.80;67.40;;;;;;4508670;31;20017;-67
2022/11/18 04:52:00;;;;;;;;;;;17.80;67.40;;;;;;4501954;31;20120;-68
2022/11/18 04:54:26;;;;;;;;;;;17.90;67.40;;;;;;4497155;31;20131;-67
2022/11/18 04:56:52;;;;;;;;;;;17.80;67.40;;;;;;4500026;31;20083;-68
2022/11/18 04:59:20;;;;;;;;;;;17.80;67.40;;;;;;4503781;31;20041;-67
2022/11/18 05:01:46;;;;;;;;;;;17.80;67.40;;;;;;4513068;31;20033;-67
2022/11/18 05:04:17;;;;;;;;;;;17.80;67.40;;;;;;4508482;31;20052;-68
2022/11/18 05:06:43;;;;;;;;;;;17.80;67.40;;;;;;4496940;31;20047;-67
2022/11/18 05:09:12;;;;;;;;;;;17.80;67.40;;;;;;4499757;31;20571;-67
2022/11/18 05:14:26;;;;;;;;;;;17.80;67.40;;;;;;4497649;31;20048;-67
2022/11/18 05:16:53;;;;;;;;;;;17.70;67.30;;;;;;4504614;31;20063;-67
2022/11/18 05:19:18;;;;;;;;;;;17.70;67.40;;;;;;4512510;31;20571;-68
2022/11/18 05:21:44;;;;;;;;;;;17.70;67.30;;;;;;4514518;31;20033;-67
2022/11/18 05:24:10;;;;;;;;;;;17.70;67.40;;;;;;4512525;31;20075;-68
2022/11/18 05:26:36;;;;;;;;;;;17.70;67.40;;;;;;4514303;31;20425;-67
2022/11/18 05:29:02;;;;;;;;;;;17.70;67.30;;;;;;4502066;31;20429;-67
2022/11/18 05:31:28;;;;;;;;;;;17.70;67.30;;;;;;4520909;31;20034;-68
2022/11/18 05:33:53;;;;;;;;;;;17.70;67.40;;;;;;4514242;31;20146;-68
2022/11/18 05:36:20;;;;;;;;;;;17.70;67.40;;;;;;4511879;31;20076;-67
2022/11/18 05:38:46;;;;;;;;;;;17.70;67.40;;;;;;4502921;31;20043;-68
2022/11/18 05:43:57;;;;;;;;;;;17.70;67.40;;;;;;4513682;31;20024;-67
2022/11/18 05:46:23;;;;;;;;;;;17.70;67.40;;;;;;4513484;31;20054;-67
2022/11/18 05:48:50;;;;;;;;;;;17.70;67.40;;;;;;4512053;31;20457;-67
2022/11/18 05:51:16;;;;;;;;;;;17.70;67.50;;;;;;4514157;31;20028;-67
2022/11/18 05:53:41;;;;;;;;;;;17.60;67.40;;;;;;4507681;31;20099;-67
2022/11/18 05:56:13;;;;;;;;;;;17.60;68.20;;;;;;4513974;31;20730;-68
2022/11/18 05:58:39;;;;;;;;;;;17.60;67.30;;;;;;4508203;31;20033;-67
2022/11/18 06:01:05;;;;;;;;;;;17.60;67.40;;;;;;4513660;31;20035;-67
2022/11/18 06:03:33;;;;;;;;;;;17.60;67.40;;;;;;4513368;31;20111;-67
2022/11/18 06:06:02;;;;;;;;;;;17.60;67.40;;;;;;4503355;31;20118;-67
2022/11/18 06:08:29;;;;;;;;;;;17.60;67.40;;;;;;4511531;31;20617;-68
2022/11/18 06:10:55;;;;;;;;;;;17.60;67.40;;;;;;4511658;31;20071;-67
2022/11/18 06:13:28;;;;;;;;;;;17.60;67.40;;;;;;4513833;31;20025;-66
2022/11/18 06:15:54;;;;;;;;;;;17.50;67.30;;;;;;4512375;31;20405;-67
2022/11/18 06:18:22;;;;;;;;;;;17.60;67.40;;;;;;4512962;31;20466;-67
2022/11/18 06:20:49;;;;;;;;;;;17.60;67.40;;;;;;4513406;31;19996;-67
2022/11/18 06:23:15;;;;;;;;;;;17.60;67.50;;;;;;4511683;31;20081;-67
2022/11/18 06:25:40;;;;;;;;;;;17.50;67.40;;;;;;4499372;31;20029;-67
2022/11/18 06:28:07;;;;;;;;;;;17.50;67.40;;;;;;4511747;31;20536;-68
2022/11/18 06:30:33;;;;;;;;;;;17.50;67.40;;;;;;4513408;31;20535;-67
2022/11/18 06:32:59;;;;;;;;;;;17.50;67.30;;;;;;4512451;31;20029;-67
2022/11/18 06:35:24;;;;;;;;;;;17.50;67.40;;;;;;4512150;31;20064;-67
2022/11/18 06:37:50;;;;;;;;;;;17.50;67.40;;;;;;4513230;31;19965;-67
2022/11/18 06:40:16;;;;;;;;;;;17.50;67.40;;;;;;4497740;31;20047;-68
2022/11/18 06:45:27;;;;;;;;;;;17.50;67.40;;;;;;4510408;31;20040;-67
2022/11/18 06:47:56;;;;;;;;;;;17.50;67.40;;;;;;4512275;31;20041;-67
2022/11/18 06:50:22;;;;;;;;;;;17.50;67.40;;;;;;4512629;31;20028;-67
2022/11/18 06:52:48;;;;;;;;;;;17.50;67.30;;;;;;4512275;31;20032;-67
2022/11/18 06:55:13;;;;;;;;;;;17.50;67.40;;;;;;4511867;31;20075;-68
2022/11/18 06:57:39;;;;;;;;;;;17.50;67.40;;;;;;4510352;31;20032;-68
2022/11/18 07:00:05;;;;;;;;;;;17.40;67.30;;;;;;4513491;31;20571;-67
2022/11/18 07:02:31;;;;;;;;;;;17.40;67.30;;;;;;4510991;31;20024;-68
2022/11/18 07:04:57;;;;;;;;;;;17.40;67.30;;;;;;4513575;31;20036;-68
2022/11/18 07:07:23;;;;;;;;;;;17.40;67.30;;;;;;4511900;31;20069;-67
2022/11/18 07:09:49;;;;;;;;;;;17.40;67.30;;;;;;4512564;31;20039;-67
2022/11/18 07:12:15;;;;;;;;;;;17.40;67.30;;;;;;4513209;31;20047;-67
2022/11/18 07:14:40;;;;;;;;;;;17.40;67.30;;;;;;4511224;31;20057;-67
2022/11/18 07:17:06;;;;;;;;;;;17.40;67.30;;;;;;4499493;31;20390;-67
2022/11/18 07:19:32;;;;;;;;;;;17.40;67.30;;;;;;4511074;31;20083;-68
2022/11/18 07:21:58;;;;;;;;;;;17.40;67.30;;;;;;4513183;31;20105;-67
2022/11/18 07:24:24;;;;;;;;;;;17.40;67.30;;;;;;4512059;31;20082;-67
2022/11/18 07:26:51;;;;;;;;;;;17.40;67.30;;;;;;4511433;31;20032;-67
2022/11/18 07:29:19;;;;;;;;;;;17.40;67.30;;;;;;4513258;31;19993;-67
2022/11/18 07:31:45;;;;;;;;;;;17.40;67.30;;;;;;4511466;31;20492;-69
2022/11/18 07:34:13;;;;;;;;;;;17.40;67.20;;;;;;4514907;31;20041;-70
2022/11/18 07:36:38;;;;;;;;;;;17.30;67.10;;;;;;4513889;31;20017;-68
2022/11/18 07:39:05;;;;;;;;;;;17.30;66.80;;;;;;4514834;31;20017;-68
2022/11/18 07:41:31;;;;;;;;;;;17.30;66.80;;;;;;4514492;31;20050;-68
2022/11/18 07:43:58;;;;;;;;;;;17.30;67.00;;;;;;4527601;31;20045;-66
2022/11/18 07:46:25;;;;;;;;;;;17.30;67.00;;;;;;4515913;31;20407;-68
2022/11/18 07:48:52;;;;;;;;;;;17.30;67.20;;;;;;4526174;31;20021;-69
2022/11/18 07:51:18;;;;;;;;;;;17.30;67.30;;;;;;4527967;31;20155;-69
2022/11/18 07:53:45;;;;;;;;;;;17.30;67.50;;;;;;4526051;31;20147;-69
2022/11/18 07:56:11;;;;;;;;;;;17.30;67.70;;;;;;4516095;31;20033;-68
2022/11/18 07:58:37;;;;;;;;;;;17.30;67.90;;;;;;4526055;31;20037;-68
2022/11/18 08:01:22;;;;;;;;;;;17.40;67.60;;;;;;4513958;31;20043;-68
2022/11/18 08:03:48;;;;;;;;;;;17.40;67.60;;;;;;4515242;31;20087;-69
2022/11/18 08:06:15;;;;;;;;;;;17.50;67.40;;;;;;4512044;31;20094;-68
2022/11/18 08:08:42;;;;;;;;;;;17.60;67.20;;;;;;4515310;31;20048;-68
2022/11/18 08:11:09;;;;;;;;;;;17.70;66.90;;;;;;4513255;31;20038;-67
2022/11/18 08:13:35;;;;;;;;;;;17.80;66.70;;;;;;4527551;31;20129;-68
2022/11/18 08:16:01;;;;;;;;;;;17.80;66.30;;;;;;4514569;31;20029;-68
2022/11/18 08:18:28;;;;;;;;;;;18.00;66.20;;;;;;4513016;31;20686;-68
2022/11/18 08:20:53;;;;;;;;;;;18.10;65.90;;;;;;4514958;31;20013;-67
2022/11/18 08:23:19;;;;;;;;;;;18.20;65.60;;;;;;4513503;31;20040;-68
2022/11/18 08:25:45;;;;;;;;;;;18.30;65.30;;;;;;4515285;31;20071;-68
2022/11/18 08:28:12;;;;;;;;;;;18.40;65.10;;;;;;4513156;31;20072;-68
2022/11/18 08:30:38;;;;;;;;;;;18.50;64.90;;;;;;4514876;31;20043;-68
2022/11/18 08:33:04;;;;;;;;;;;18.60;64.80;;;;;;4512962;31;20135;-68
2022/11/18 08:35:30;;;;;;;;;;;18.60;64.50;;;;;;4526208;31;20047;-68
2022/11/18 08:37:56;;;;;;;;;;;18.70;64.40;;;;;;4512754;31;20049;-68
2022/11/18 08:40:21;;;;;;;;;;;18.70;64.10;;;;;;4511650;31;20118;-69
2022/11/18 08:42:47;;;;;;;;;;;18.80;64.00;;;;;;4515237;31;20155;-69
2022/11/18 08:45:13;;;;;;;;;;;18.90;64.00;;;;;;4512196;31;20036;-69
2022/11/18 08:47:39;;;;;;;;;;;18.90;63.80;;;;;;4500675;31;20060;-69
2022/11/18 08:50:05;;;;;;;;;;;18.90;63.70;;;;;;4498511;31;20171;-70
2022/11/18 08:52:32;;;;;;;;;;;19.00;63.70;;;;;;4511016;31;20029;-68
2022/11/18 08:54:58;;;;;;;;;;;19.00;63.50;;;;;;4510904;31;20005;-67
2022/11/18 08:57:23;;;;;;;;;;;19.00;63.50;;;;;;4511302;31;20139;-68
2022/11/18 08:59:49;;;;;;;;;;;19.10;63.50;;;;;;4526463;31;20090;-68
2022/11/18 09:02:15;;;;;;;;;;;19.10;63.50;;;;;;4512233;31;20142;-68
2022/11/18 09:04:41;;;;;;;;;;;19.10;63.50;;;;;;4514086;31;20028;-68
2022/11/18 09:07:07;;;;;;;;;;;19.10;63.50;;;;;;4503930;31;20045;-68
2022/11/18 09:09:34;;;;;;;;;;;19.20;63.50;;;;;;4513886;31;20166;-68
2022/11/18 09:12:00;;;;;;;;;;;19.20;63.40;;;;;;4513385;31;19985;-68
2022/11/18 09:14:26;;;;;;;;;;;19.20;63.30;;;;;;4511597;31;20039;-68
2022/11/18 09:16:51;;;;;;;;;;;19.20;63.30;;;;;;4513364;31;20035;-68
2022/11/18 09:19:17;;;;;;;;;;;19.20;63.30;;;;;;4512385;31;20021;-68
2022/11/18 09:21:43;;;;;;;;;;;19.30;63.30;;;;;;4513105;31;20029;-68
2022/11/18 09:24:10;;;;;;;;;;;19.30;63.20;;;;;;4512480;31;20032;-68
2022/11/18 09:26:36;;;;;;;;;;;19.30;64.10;;;;;;4514039;31;20068;-68
2022/11/18 09:29:02;;;;;;;;;;;19.30;63.30;;;;;;4513771;31;20047;-68
2022/11/18 09:31:28;;;;;;;;;;;19.30;63.30;;;;;;4524659;31;20090;-68
2022/11/18 09:33:54;;;;;;;;;;;19.40;63.50;;;;;;4513382;31;20037;-68
2022/11/18 09:36:21;;;;;;;;;;;19.40;63.60;;;;;;4511834;31;20061;-68
2022/11/18 09:38:47;;;;;;;;;;;19.40;63.70;;;;;;4514204;31;20048;-68
2022/11/18 09:41:16;;;;;;;;;;;19.40;63.80;;;;;;4512018;31;20040;-68
2022/11/18 09:44:06;;;;;;;;;;;19.40;63.90;;;;;;4512762;31;20063;-68
2022/11/18 09:46:51;;;;;;;;;;;19.50;64.00;;;;;;4501198;31;20532;-68
2022/11/18 09:49:20;;;;;;;;;;;19.50;64.00;;;;;;4496730;31;20106;-68
2022/11/18 09:51:46;;;;;;;;;;;19.50;64.00;;;;;;4498876;31;20155;-68
2022/11/18 09:54:26;;;;;;;;;;;19.50;64.00;;;;;;4503450;31;20129;-69
2022/11/18 09:56:53;;;;;;;;;;;19.50;64.10;;;;;;4507644;31;20050;-69
2022/11/18 09:59:20;;;;;;;;;;;19.60;64.10;;;;;;4513828;31;20081;-68
2022/11/18 10:01:48;;;;;;;;;;;19.60;64.00;;;;;;4506081;31;20040;-69
2022/11/18 10:04:15;;;;;;;;;;;19.50;64.00;;;;;;4510990;31;20039;-68
2022/11/18 10:06:41;;;;;;;;;;;19.60;64.00;;;;;;4511816;31;20072;-68
2022/11/18 10:09:19;;;;;;;;;;;19.60;64.00;;;;;;4513977;31;20047;-68
2022/11/18 10:11:48;;;;;;;;;;;19.60;64.00;;;;;;4513133;31;20035;-68
2022/11/18 10:14:27;;;;;;;;;;;19.60;63.90;;;;;;4511938;31;20040;-70
2022/11/18 10:17:02;;;;;;;;;;;19.60;63.90;;;;;;4498935;31;20036;-68
2022/11/18 10:19:48;;;;;;;;;;;19.70;64.00;;;;;;4496468;31;20037;-68
2022/11/18 10:22:14;;;;;;;;;;;19.70;64.10;;;;;;4509105;31;20032;-70
2022/11/18 10:24:41;;;;;;;;;;;19.70;63.90;;;;;;4498008;31;20035;-67
2022/11/18 10:27:09;;;;;;;;;;;19.70;64.00;;;;;;4512133;31;20016;-68
2022/11/18 10:29:35;;;;;;;;;;;19.70;64.00;;;;;;4513784;31;20036;-68
2022/11/18 10:32:03;;;;;;;;;;;19.80;64.10;;;;;;4508238;31;20043;-69
2022/11/18 10:34:30;;;;;;;;;;;19.80;64.10;;;;;;4501709;31;20033;-67
2022/11/18 10:36:57;;;;;;;;;;;19.80;64.10;;;;;;4492205;31;20033;-68
2022/11/18 10:39:23;;;;;;;;;;;19.80;64.10;;;;;;4501207;31;20054;-68
2022/11/18 10:41:51;;;;;;;;;;;19.80;64.10;;;;;;4496779;31;20025;-68
2022/11/18 10:44:32;;;;;;;;;;;19.80;64.10;;;;;;4496459;31;20106;-69
2022/11/18 10:47:22;;;;;;;;;;;19.90;64.20;;;;;;4510921;31;20032;-68
2022/11/18 10:49:47;;;;;;;;;;;19.90;64.20;;;;;;4505409;31;20187;-68
2022/11/18 10:52:13;;;;;;;;;;;19.80;64.10;;;;;;4513196;31;20178;-67
2022/11/18 10:54:40;;;;;;;;;;;19.90;64.10;;;;;;4512842;31;19989;-67
2022/11/18 10:57:09;;;;;;;;;;;19.90;64.10;;;;;;4509694;31;20084;-69
2022/11/18 10:59:38;;;;;;;;;;;19.90;64.10;;;;;;4496028;31;20036;-70
2022/11/18 11:02:07;;;;;;;;;;;19.90;64.00;;;;;;4495673;31;20039;-69
2022/11/18 11:04:35;;;;;;;;;;;19.90;63.90;;;;;;4496432;31;20482;-68
2022/11/18 11:07:12;;;;;;;;;;;19.90;63.80;;;;;;4507376;31;20051;-69
2022/11/18 11:09:39;;;;;;;;;;;20.00;63.90;;;;;;4500855;31;20043;-69
2022/11/18 11:12:15;;;;;;;;;;;20.00;63.80;;;;;;4502887;31;20053;-69
2022/11/18 11:14:44;;;;;;;;;;;20.00;63.80;;;;;;4498901;31;20033;-69
2022/11/18 11:17:14;;;;;;;;;;;20.00;63.80;;;;;;4500434;31;20507;-68
2022/11/18 11:19:49;;;;;;;;;;;20.00;63.80;;;;;;4511115;31;20032;-68
2022/11/18 11:22:15;;;;;;;;;;;20.00;63.70;;;;;;4509731;31;20104;-69
2022/11/18 11:24:41;;;;;;;;;;;20.00;63.70;;;;;;4500955;31;20100;-69
2022/11/18 11:27:10;;;;;;;;;;;20.00;63.60;;;;;;4492016;31;41866;-69
2022/11/18 11:29:45;;;;;;;;;;;20.00;63.60;;;;;;4515139;31;20047;-69
2022/11/18 11:32:18;;;;;;;;;;;20.00;63.60;;;;;;4510184;31;20110;-69
2022/11/18 11:34:44;;;;;;;;;;;20.00;63.60;;;;;;4508889;31;20052;-69
2022/11/18 11:37:10;;;;;;;;;;;20.00;63.50;;;;;;4504002;31;20035;-69
2022/11/18 11:39:45;;;;;;;;;;;20.00;63.50;;;;;;4513849;31;20037;-70
2022/11/18 11:42:20;;;;;;;;;;;20.00;63.50;;;;;;4513908;31;20067;-70
2022/11/18 11:44:49;;;;;;;;;;;20.00;63.50;;;;;;4511619;31;20155;-69
2022/11/18 11:47:46;;;;;;;;;;;20.00;63.40;;;;;;4511888;31;20088;-69
2022/11/18 11:50:26;;;;;;;;;;;20.00;63.50;;;;;;4502801;31;20521;-68
2022/11/18 11:52:52;;;;;;;;;;;20.00;63.50;;;;;;4505563;31;20040;-69
2022/11/18 11:55:24;;;;;;;;;;;20.10;63.50;;;;;;4511133;31;20035;-69
2022/11/18 11:57:53;;;;;;;;;;;20.10;63.30;;;;;;4508397;31;20028;-71
2022/11/18 12:00:19;;;;;;;;;;;20.10;63.20;;;;;;4515452;31;20045;-75
2022/11/18 12:02:45;;;;;;;;;;;20.00;63.30;;;;;;4512360;31;20077;-72
2022/11/18 12:05:22;;;;;;;;;;;20.00;63.30;;;;;;4514749;31;20029;-71
2022/11/18 12:07:59;;;;;;;;;;;20.00;63.30;;;;;;4514667;31;20004;-71
2022/11/18 12:10:24;;;;;;;;;;;20.00;63.20;;;;;;4513084;31;20082;-71
2022/11/18 12:13:10;;;;;;;;;;;20.00;63.30;;;;;;4514656;31;20484;-70
2022/11/18 12:15:47;;;;;;;;;;;20.00;63.00;;;;;;4512714;31;20064;-71
2022/11/18 12:18:39;;;;;;;;;;;20.00;63.00;;;;;;4501901;31;20768;-69
2022/11/18 12:21:05;;;;;;;;;;;20.10;63.00;;;;;;4513316;31;20025;-71
2022/11/18 12:23:32;;;;;;;;;;;20.10;62.90;;;;;;4513061;31;20028;-69
2022/11/18 12:25:59;;;;;;;;;;;20.10;63.00;;;;;;4514105;31;20045;-70
2022/11/18 12:28:25;;;;;;;;;;;20.10;62.90;;;;;;4512472;31;20462;-70
2022/11/18 12:31:11;;;;;;;;;;;20.10;62.90;;;;;;4514152;31;20195;-70
2022/11/18 12:33:53;;;;;;;;;;;20.10;62.80;;;;;;4514207;31;20032;-70
2022/11/18 12:36:33;;;;;;;;;;;20.10;62.60;;;;;;4524497;31;20091;-70
2022/11/18 12:39:18;;;;;;;;;;;20.00;62.50;;;;;;4511221;31;20032;-70
2022/11/18 12:44:30;;;;;;;;;;;20.10;62.40;;;;;;4512936;31;20040;-70
2022/11/18 12:46:56;;;;;;;;;;;20.10;62.30;;;;;;4502825;31;20238;-70
2022/11/18 12:49:22;;;;;;;;;;;20.10;62.40;;;;;;4524732;31;20032;-70
2022/11/18 12:51:57;;;;;;;;;;;20.10;62.30;;;;;;4514374;31;20019;-70
2022/11/18 12:54:25;;;;;;;;;;;20.10;62.30;;;;;;4504231;31;20032;-70
2022/11/18 12:56:51;;;;;;;;;;;20.10;62.40;;;;;;4513013;31;20479;-70
2022/11/18 12:59:25;;;;;;;;;;;20.10;62.40;;;;;;4514082;31;20158;-70
2022/11/18 13:02:00;;;;;;;;;;;20.10;62.40;;;;;;4512429;31;20550;-70
2022/11/18 13:04:26;;;;;;;;;;;20.10;62.40;;;;;;4514407;31;20409;-70
2022/11/18 13:06:54;;;;;;;;;;;20.10;62.40;;;;;;4509056;31;20048;-70
2022/11/18 13:09:23;;;;;;;;;;;20.10;62.40;;;;;;4512962;31;20079;-70
2022/11/18 13:11:50;;;;;;;;;;;20.10;62.40;;;;;;4509950;31;20104;-70
2022/11/18 13:20:34;;;;;;;;;;;20.10;62.40;;;;;;4514086;31;19985;-70
2022/11/18 13:25:47;;;;;;;;;;;20.00;62.30;;;;;;4506084;31;20044;-70
2022/11/18 13:28:32;;;;;;;;;;;20.10;62.30;;;;;;4509658;31;20575;-70
2022/11/18 13:31:10;;;;;;;;;;;20.00;62.20;;;;;;4512774;31;20050;-70
2022/11/18 13:33:36;;;;;;;;;;;20.00;62.20;;;;;;4514419;31;20032;-69
2022/11/18 13:36:02;;;;;;;;;;;20.10;62.30;;;;;;4512544;31;20039;-70
2022/11/18 13:38:27;;;;;;;;;;;20.00;62.20;;;;;;4501952;31;20441;-70
2022/11/18 13:41:11;;;;;;;;;;;20.10;62.20;;;;;;4498087;31;20155;-70
2022/11/18 13:43:37;;;;;;;;;;;20.10;62.20;;;;;;4526371;31;20067;-70
2022/11/18 13:46:03;;;;;;;;;;;20.00;62.10;;;;;;4526049;31;19973;-69
2022/11/18 13:48:31;;;;;;;;;;;20.00;62.10;;;;;;4512791;31;20009;-70
2022/11/18 13:50:59;;;;;;;;;;;20.10;62.20;;;;;;4526613;31;20021;-70
2022/11/18 13:53:28;;;;;;;;;;;20.10;62.10;;;;;;4500426;31;20051;-70
2022/11/18 13:55:57;;;;;;;;;;;20.10;62.00;;;;;;4502143;31;20373;-70
2022/11/18 13:58:29;;;;;;;;;;;20.10;62.00;;;;;;4512492;31;20025;-70
2022/11/18 14:00:56;;;;;;;;;;;20.10;62.00;;;;;;4513710;31;20029;-70
2022/11/18 14:03:22;;;;;;;;;;;20.00;61.90;;;;;;4499747;31;20025;-69
2022/11/18 14:05:54;;;;;;;;;;;20.10;62.00;;;;;;4512180;31;20143;-70
2022/11/18 14:08:51;;;;;;;;;;;20.10;62.00;;;;;;4504875;31;20033;-70
2022/11/18 14:11:33;;;;;;;;;;;20.10;62.00;;;;;;4494976;31;20025;-70
2022/11/18 14:13:59;;;;;;;;;;;20.10;62.00;;;;;;4512958;31;20093;-70
2022/11/18 14:16:31;;;;;;;;;;;20.10;62.00;;;;;;4513578;31;20033;-69
2022/11/18 14:18:57;;;;;;;;;;;20.10;62.00;;;;;;4511940;31;20048;-70
2022/11/18 14:21:27;;;;;;;;;;;20.10;61.90;;;;;;4513903;31;20017;-70
2022/11/18 14:23:53;;;;;;;;;;;20.10;62.00;;;;;;4504325;31;20021;-70
2022/11/18 14:26:36;;;;;;;;;;;20.10;61.90;;;;;;4509406;31;20067;-70
2022/11/18 14:29:13;;;;;;;;;;;20.10;61.90;;;;;;4525870;31;19981;-70
2022/11/18 14:31:39;;;;;;;;;;;20.10;61.90;;;;;;4511758;31;20040;-70
2022/11/18 14:34:25;;;;;;;;;;;20.10;61.90;;;;;;4512075;31;20053;-70
2022/11/18 14:36:51;;;;;;;;;;;20.10;61.90;;;;;;4497311;31;20031;-69
2022/11/18 14:39:28;;;;;;;;;;;20.10;61.90;;;;;;4525780;31;20075;-70
2022/11/18 14:41:54;;;;;;;;;;;20.10;61.80;;;;;;4513437;31;20032;-70
2022/11/18 14:44:21;;;;;;;;;;;20.10;61.80;;;;;;4514931;31;20049;-68
2022/11/18 14:46:48;;;;;;;;;;;20.10;61.80;;;;;;4516851;31;20086;-70
2022/11/18 14:49:16;;;;;;;;;;;20.10;61.80;;;;;;4515079;31;20029;-68
2022/11/18 14:51:42;;;;;;;;;;;20.10;61.80;;;;;;4516954;31;20028;-70